Time,TemperatureF,DewpointF,PressureIn,WindDirection,WindDirectionDegrees,WindSpeedMPH,WindSpeedGustMPH,Humidity,HourlyPrecipIn,Conditions,Clouds,dailyrainin,SolarRadiationWatts/m^2,SoftwareType,DateUTC
2013-09-27 00:22:00,53.0,34.0,-100.00,NE,34,0.0,4.0,49,0.00,,,0.00,0.000000,,2013-09-27 07:22:00,
2013-09-27 00:32:00,53.0,34.0,-100.00,NE,34,0.0,4.0,49,0.00,,,0.00,0.000000,,2013-09-27 07:32:00,
2013-09-27 00:43:00,53.0,34.0,-100.00,NE,34,0.0,4.0,49,0.00,,,0.00,0.000000,,2013-09-27 07:43:00,
2013-09-27 00:53:00,53.0,34.0,-100.00,NE,34,0.0,4.0,49,0.00,,,0.00,0.000000,,2013-09-27 07:53:00,
2013-09-27 01:22:00,52.0,34.0,-100.00,NNE,13,5.0,8.0,50,0.00,,,0.00,0.000000,,2013-09-27 08:22:00,
2013-09-27 01:32:00,52.0,34.0,-100.00,NNE,13,5.0,8.0,50,0.00,,,0.00,0.000000,,2013-09-27 08:32:00,
2013-09-27 01:42:00,52.0,34.0,-100.00,NNE,13,5.0,8.0,50,0.00,,,0.00,0.000000,,2013-09-27 08:42:00,
2013-09-27 01:52:00,52.0,34.0,-100.00,NNE,13,5.0,8.0,50,0.00,,,0.00,0.000000,,2013-09-27 08:52:00,
2013-09-27 02:22:00,51.0,34.0,-100.00,North,9,8.0,11.0,52,0.00,,,0.00,0.000000,,2013-09-27 09:22:00,
2013-09-27 02:33:00,51.0,34.0,-100.00,North,9,8.0,11.0,52,0.00,,,0.00,0.000000,,2013-09-27 09:33:00,
2013-09-27 02:44:00,51.0,34.0,-100.00,North,9,8.0,11.0,52,0.00,,,0.00,0.000000,,2013-09-27 09:44:00,
2013-09-27 02:53:00,51.0,34.0,-100.00,North,9,8.0,11.0,52,0.00,,,0.00,0.000000,,2013-09-27 09:53:00,
2013-09-27 03:23:00,49.0,32.0,-100.00,North,10,8.0,12.0,52,0.00,,,0.00,0.000000,,2013-09-27 10:23:00,
2013-09-27 03:33:00,49.0,32.0,-100.00,North,10,8.0,12.0,52,0.00,,,0.00,0.000000,,2013-09-27 10:33:00,
2013-09-27 03:42:00,49.0,32.0,-100.00,North,10,8.0,12.0,52,0.00,,,0.00,0.000000,,2013-09-27 10:42:00,
2013-09-27 03:52:00,49.0,32.0,-100.00,North,10,8.0,12.0,52,0.00,,,0.00,0.000000,,2013-09-27 10:52:00,
2013-09-27 04:22:00,48.0,31.0,-100.00,North,358,9.0,15.0,51,0.00,,,0.00,0.000000,,2013-09-27 11:22:00,
2013-09-27 04:33:00,48.0,31.0,-100.00,North,358,9.0,15.0,51,0.00,,,0.00,0.000000,,2013-09-27 11:33:00,
2013-09-27 04:42:00,48.0,31.0,-100.00,North,358,9.0,15.0,51,0.00,,,0.00,0.000000,,2013-09-27 11:42:00,
2013-09-27 04:52:00,48.0,31.0,-100.00,North,358,9.0,15.0,51,0.00,,,0.00,0.000000,,2013-09-27 11:52:00,
2013-09-27 05:21:00,48.0,30.0,-100.00,North,6,7.0,13.0,50,0.00,,,0.00,0.000000,,2013-09-27 12:21:00,
2013-09-27 05:32:00,48.0,30.0,-100.00,North,6,7.0,13.0,50,0.00,,,0.00,0.000000,,2013-09-27 12:32:00,
2013-09-27 05:42:00,48.0,30.0,-100.00,North,6,7.0,13.0,50,0.00,,,0.00,0.000000,,2013-09-27 12:42:00,
2013-09-27 05:52:00,48.0,30.0,-100.00,North,6,7.0,13.0,50,0.00,,,0.00,0.000000,,2013-09-27 12:52:00,
2013-09-27 06:21:00,45.0,30.0,-100.00,ENE,67,0.0,10.0,56,0.00,,,0.00,0.000000,,2013-09-27 13:21:00,
2013-09-27 06:32:00,45.0,30.0,-100.00,ENE,67,0.0,10.0,56,0.00,,,0.00,0.000000,,2013-09-27 13:32:00,
2013-09-27 06:42:00,45.0,30.0,-100.00,ENE,67,0.0,10.0,56,0.00,,,0.00,0.000000,,2013-09-27 13:42:00,
2013-09-27 06:52:00,45.0,30.0,-100.00,ENE,67,0.0,10.0,56,0.00,,,0.00,0.000000,,2013-09-27 13:52:00,
2013-09-27 07:21:00,46.0,28.0,-100.00,North,9,5.0,9.0,50,0.00,,,0.00,1.000000,,2013-09-27 14:21:00,
2013-09-27 07:32:00,46.0,28.0,-100.00,North,9,5.0,9.0,50,0.00,,,0.00,1.000000,,2013-09-27 14:32:00,
2013-09-27 07:42:00,46.0,28.0,-100.00,North,9,5.0,9.0,50,0.00,,,0.00,1.000000,,2013-09-27 14:42:00,
2013-09-27 07:52:00,46.0,28.0,-100.00,North,9,5.0,9.0,50,0.00,,,0.00,1.000000,,2013-09-27 14:52:00,
2013-09-27 08:21:00,46.0,27.0,-100.00,North,0,8.0,12.0,48,0.00,,,0.00,16.000000,,2013-09-27 15:21:00,
2013-09-27 08:33:00,46.0,27.0,-100.00,North,0,8.0,12.0,48,0.00,,,0.00,16.000000,,2013-09-27 15:33:00,
2013-09-27 08:44:00,46.0,27.0,-100.00,North,0,8.0,12.0,48,0.00,,,0.00,16.000000,,2013-09-27 15:44:00,
2013-09-27 08:54:00,46.0,27.0,-100.00,North,0,8.0,12.0,48,0.00,,,0.00,16.000000,,2013-09-27 15:54:00,
2013-09-27 09:44:00,53.0,26.0,-100.00,North,357,5.0,12.0,35,0.00,,,0.00,306.000000,,2013-09-27 16:44:00,
2013-09-27 09:53:00,53.0,26.0,-100.00,North,357,5.0,12.0,35,0.00,,,0.00,306.000000,,2013-09-27 16:53:00,
2013-09-27 10:23:00,62.0,27.0,-100.00,SW,215,1.0,9.0,26,0.00,,,0.00,548.000000,,2013-09-27 17:23:00,
2013-09-27 10:34:00,62.0,27.0,-100.00,SW,215,1.0,9.0,26,0.00,,,0.00,548.000000,,2013-09-27 17:34:00,
2013-09-27 10:43:00,62.0,27.0,-100.00,SW,215,1.0,9.0,26,0.00,,,0.00,548.000000,,2013-09-27 17:43:00,
2013-09-27 10:52:00,62.0,27.0,-100.00,SW,215,1.0,9.0,26,0.00,,,0.00,548.000000,,2013-09-27 17:52:00,
2013-09-27 11:21:00,61.0,29.0,-100.00,SSE,154,8.0,12.0,29,0.00,,,0.00,734.000000,,2013-09-27 18:21:00,
2013-09-27 11:33:00,61.0,29.0,-100.00,SSE,154,8.0,12.0,29,0.00,,,0.00,734.000000,,2013-09-27 18:33:00,
2013-09-27 11:43:00,61.0,29.0,-100.00,SSE,154,8.0,12.0,29,0.00,,,0.00,734.000000,,2013-09-27 18:43:00,
2013-09-27 11:52:00,61.0,29.0,-100.00,SSE,154,8.0,12.0,29,0.00,,,0.00,734.000000,,2013-09-27 18:52:00,
2013-09-27 12:22:00,66.0,27.0,-100.00,South,187,10.0,15.0,23,0.00,,,0.00,867.000000,,2013-09-27 19:22:00,
2013-09-27 12:32:00,66.0,27.0,-100.00,South,187,10.0,15.0,23,0.00,,,0.00,867.000000,,2013-09-27 19:32:00,
2013-09-27 12:42:00,66.0,27.0,-100.00,South,187,10.0,15.0,23,0.00,,,0.00,867.000000,,2013-09-27 19:42:00,
2013-09-27 12:53:00,66.0,27.0,-100.00,South,187,10.0,15.0,23,0.00,,,0.00,867.000000,,2013-09-27 19:53:00,
2013-09-27 13:22:00,69.0,24.0,-100.00,South,179,12.0,19.0,18,0.00,,,0.00,927.000000,,2013-09-27 20:22:00,
2013-09-27 13:32:00,69.0,24.0,-100.00,South,179,12.0,19.0,18,0.00,,,0.00,927.000000,,2013-09-27 20:32:00,
2013-09-27 13:42:00,69.0,24.0,-100.00,South,179,12.0,19.0,18,0.00,,,0.00,927.000000,,2013-09-27 20:42:00,
2013-09-27 13:52:00,69.0,24.0,-100.00,South,179,12.0,19.0,18,0.00,,,0.00,927.000000,,2013-09-27 20:52:00,
2013-09-27 14:21:00,69.0,24.0,-100.00,SSE,161,12.0,19.0,18,0.00,,,0.00,916.000000,,2013-09-27 21:21:00,
2013-09-27 14:33:00,69.0,24.0,-100.00,SSE,161,12.0,19.0,18,0.00,,,0.00,916.000000,,2013-09-27 21:33:00,
2013-09-27 14:44:00,69.0,24.0,-100.00,SSE,161,12.0,19.0,18,0.00,,,0.00,916.000000,,2013-09-27 21:44:00,
2013-09-27 14:54:00,69.0,24.0,-100.00,SSE,161,12.0,19.0,18,0.00,,,0.00,916.000000,,2013-09-27 21:54:00,
2013-09-27 15:24:00,71.0,25.0,-100.00,South,174,13.0,21.0,18,0.00,,,0.00,831.000000,,2013-09-27 22:24:00,
2013-09-27 15:34:00,71.0,25.0,-100.00,South,174,13.0,21.0,18,0.00,,,0.00,831.000000,,2013-09-27 22:34:00,
2013-09-27 15:43:00,71.0,25.0,-100.00,South,174,13.0,21.0,18,0.00,,,0.00,831.000000,,2013-09-27 22:43:00,
2013-09-27 15:53:00,71.0,25.0,-100.00,South,174,13.0,21.0,18,0.00,,,0.00,831.000000,,2013-09-27 22:53:00,
2013-09-27 16:22:00,74.0,28.0,-100.00,SSW,192,8.0,19.0,18,0.00,,,0.00,677.000000,,2013-09-27 23:22:00,
2013-09-27 16:34:00,74.0,28.0,-100.00,SSW,192,8.0,19.0,18,0.00,,,0.00,677.000000,,2013-09-27 23:34:00,
2013-09-27 16:43:00,74.0,28.0,-100.00,SSW,192,8.0,19.0,18,0.00,,,0.00,677.000000,,2013-09-27 23:43:00,
2013-09-27 16:53:00,74.0,28.0,-100.00,SSW,192,8.0,19.0,18,0.00,,,0.00,677.000000,,2013-09-27 23:53:00,
2013-09-27 17:22:00,73.0,27.0,-100.00,South,184,6.0,20.0,18,0.00,,,0.00,473.000000,,2013-09-28 00:22:00,
2013-09-27 17:32:00,73.0,27.0,-100.00,South,184,6.0,20.0,18,0.00,,,0.00,473.000000,,2013-09-28 00:32:00,
2013-09-27 17:42:00,73.0,27.0,-100.00,South,184,6.0,20.0,18,0.00,,,0.00,473.000000,,2013-09-28 00:42:00,
2013-09-27 17:52:00,73.0,27.0,-100.00,South,184,6.0,20.0,18,0.00,,,0.00,473.000000,,2013-09-28 00:52:00,
2013-09-27 18:21:00,70.0,32.0,-100.00,SSE,164,16.0,20.0,24,0.00,,,0.00,248.000000,,2013-09-28 01:21:00,
2013-09-27 18:32:00,70.0,32.0,-100.00,SSE,164,16.0,20.0,24,0.00,,,0.00,248.000000,,2013-09-28 01:32:00,
2013-09-27 18:42:00,70.0,32.0,-100.00,SSE,164,16.0,20.0,24,0.00,,,0.00,248.000000,,2013-09-28 01:42:00,
2013-09-27 18:52:00,70.0,32.0,-100.00,SSE,164,16.0,20.0,24,0.00,,,0.00,248.000000,,2013-09-28 01:52:00,
2013-09-27 19:22:00,67.0,31.0,-100.00,SSE,153,15.0,22.0,26,0.00,,,0.00,35.000000,,2013-09-28 02:22:00,
2013-09-27 19:32:00,67.0,31.0,-100.00,SSE,153,15.0,22.0,26,0.00,,,0.00,35.000000,,2013-09-28 02:32:00,
2013-09-27 19:42:00,67.0,31.0,-100.00,SSE,153,15.0,22.0,26,0.00,,,0.00,35.000000,,2013-09-28 02:42:00,
2013-09-27 19:53:00,67.0,31.0,-100.00,SSE,153,15.0,22.0,26,0.00,,,0.00,35.000000,,2013-09-28 02:53:00,
2013-09-27 20:22:00,63.0,33.0,-100.00,South,172,8.0,19.0,32,0.00,,,0.00,0.000000,,2013-09-28 03:22:00,
2013-09-27 20:34:00,63.0,33.0,-100.00,South,172,8.0,19.0,32,0.00,,,0.00,0.000000,,2013-09-28 03:34:00,
2013-09-27 20:45:00,63.0,33.0,-100.00,South,172,8.0,19.0,32,0.00,,,0.00,0.000000,,2013-09-28 03:45:00,
2013-09-27 20:55:00,63.0,33.0,-100.00,South,172,8.0,19.0,32,0.00,,,0.00,0.000000,,2013-09-28 03:55:00,
2013-09-27 21:25:00,61.0,32.0,-100.00,West,276,0.0,17.0,33,0.00,,,0.00,0.000000,,2013-09-28 04:25:00,
2013-09-27 21:34:00,61.0,32.0,-100.00,West,276,0.0,17.0,33,0.00,,,0.00,0.000000,,2013-09-28 04:34:00,
2013-09-27 21:43:00,61.0,32.0,-100.00,West,276,0.0,17.0,33,0.00,,,0.00,0.000000,,2013-09-28 04:43:00,
2013-09-27 21:54:00,61.0,32.0,-100.00,West,276,0.0,17.0,33,0.00,,,0.00,0.000000,,2013-09-28 04:54:00,
2013-09-27 22:22:00,59.0,28.0,-100.00,NNE,28,4.0,6.0,30,0.00,,,0.00,0.000000,,2013-09-28 05:22:00,
2013-09-27 22:34:00,59.0,28.0,-100.00,NNE,28,4.0,6.0,30,0.00,,,0.00,0.000000,,2013-09-28 05:34:00,
2013-09-27 22:43:00,59.0,28.0,-100.00,NNE,28,4.0,6.0,30,0.00,,,0.00,0.000000,,2013-09-28 05:43:00,
2013-09-27 22:52:00,59.0,28.0,-100.00,NNE,28,4.0,6.0,30,0.00,,,0.00,0.000000,,2013-09-28 05:52:00,
2013-09-27 23:22:00,57.0,27.0,-100.00,North,354,7.0,11.0,32,0.00,,,0.00,0.000000,,2013-09-28 06:22:00,
2013-09-27 23:32:00,57.0,27.0,-100.00,North,354,7.0,11.0,32,0.00,,,0.00,0.000000,,2013-09-28 06:32:00,
2013-09-27 23:42:00,57.0,27.0,-100.00,North,354,7.0,11.0,32,0.00,,,0.00,0.000000,,2013-09-28 06:42:00,
2013-09-27 23:52:00,57.0,27.0,-100.00,North,354,7.0,11.0,32,0.00,,,0.00,0.000000,,2013-09-28 06:52:00,